Terminal Aerodrome Forecast
Issued by NWS Midland/Odessa, TX

Home | Current Version | Previous Version | Text Only | Print | Product List | Glossary On
Versions: 1 2 3 4 5 6 7 8 9 10 11 12 13 14 15 16 17 18 19 20 21 22 23
000
FTUS44 KMAF 250520
TAFMAF
TAF
KMAF 250520Z 2506/2606 13009KT P6SM BKN070 BKN090
     FM251200 16009KT P6SM OVC010
     FM251600 16013G23KT P6SM SCT027 BKN250
     FM260100 15010KT P6SM BKN200=

USA.gov is the U.S. government's official web portal to all federal, state and local government web resources and services.